<?xml version="1.0" encoding="UTF-8" standalone="no" ?>
<gpx xmlns="http://www.topografix.com/GPX/1/1" xmlns:xsi="http://www.w3.org/2001/XMLSchema-instance" xsi:schemaLocation="http://www.topografix.com/GPX/1/1 http://www.topografix.com/GPX/1/1/gpx.xsd" version="1.1" creator="VisuGPX - https://www.visugpx.com">
  <metadata>
    <name>Galette 2021 - Autour du Bois de Saint-Germain</name>
    <desc><![CDATA[PASAPAS Galette 2021 - Autour du Bois de Saint-Germain
Animée par Gérard, etc...]]></desc>
  </metadata>
  <trk>
    <name><![CDATA[Randonnée du 17/01/2021 à 13:26]]></name>
    <trkseg>
      <trkpt lat="48.90008" lon="2.10046">
        <ele>127</ele>
        <time>2021-01-17T13:26:05+01:00</time>
      </trkpt>
      <trkpt lat="48.89776" lon="2.09686">
        <ele>92.9</ele>
      </trkpt>
      <trkpt lat="48.90008" lon="2.10046">
        <ele>127</ele>
        <time>2021-01-17T13:26:05+01:00</time>
      </trkpt>
      <trkpt lat="48.9003" lon="2.10054">
        <ele>132</ele>
        <time>2021-01-17T13:26:32+01:00</time>
      </trkpt>
      <trkpt lat="48.90049" lon="2.10073">
        <ele>134</ele>
        <time>2021-01-17T13:26:59+01:00</time>
      </trkpt>
      <trkpt lat="48.90071" lon="2.10086">
        <ele>132</ele>
        <time>2021-01-17T13:28:04+01:00</time>
      </trkpt>
      <trkpt lat="48.90093" lon="2.10096">
        <ele>133</ele>
        <time>2021-01-17T13:28:21+01:00</time>
      </trkpt>
      <trkpt lat="48.90116" lon="2.10099">
        <ele>134</ele>
        <time>2021-01-17T13:28:40+01:00</time>
      </trkpt>
      <trkpt lat="48.90138" lon="2.10093">
        <ele>132</ele>
        <time>2021-01-17T13:28:59+01:00</time>
      </trkpt>
      <trkpt lat="48.90162" lon="2.10098">
        <ele>134</ele>
        <time>2021-01-17T13:29:20+01:00</time>
      </trkpt>
      <trkpt lat="48.90182" lon="2.10113">
        <ele>129</ele>
        <time>2021-01-17T13:29:42+01:00</time>
      </trkpt>
      <trkpt lat="48.90204" lon="2.1012">
        <ele>127</ele>
        <time>2021-01-17T13:30:03+01:00</time>
      </trkpt>
      <trkpt lat="48.90226" lon="2.10132">
        <ele>128</ele>
        <time>2021-01-17T13:30:22+01:00</time>
      </trkpt>
      <trkpt lat="48.90248" lon="2.10147">
        <ele>125</ele>
        <time>2021-01-17T13:30:43+01:00</time>
      </trkpt>
      <trkpt lat="48.90269" lon="2.1016">
        <ele>127</ele>
        <time>2021-01-17T13:31:04+01:00</time>
      </trkpt>
      <trkpt lat="48.90291" lon="2.1017">
        <ele>126</ele>
        <time>2021-01-17T13:31:24+01:00</time>
      </trkpt>
      <trkpt lat="48.90313" lon="2.10179">
        <ele>125</ele>
        <time>2021-01-17T13:31:43+01:00</time>
      </trkpt>
      <trkpt lat="48.90335" lon="2.10191">
        <ele>124</ele>
        <time>2021-01-17T13:32:03+01:00</time>
      </trkpt>
      <trkpt lat="48.90357" lon="2.10202">
        <ele>123</ele>
        <time>2021-01-17T13:32:23+01:00</time>
      </trkpt>
      <trkpt lat="48.9038" lon="2.10211">
        <ele>125</ele>
        <time>2021-01-17T13:32:42+01:00</time>
      </trkpt>
      <trkpt lat="48.90401" lon="2.10223">
        <ele>124</ele>
        <time>2021-01-17T13:33:01+01:00</time>
      </trkpt>
      <trkpt lat="48.90422" lon="2.10236">
        <ele>124</ele>
        <time>2021-01-17T13:33:20+01:00</time>
      </trkpt>
      <trkpt lat="48.90445" lon="2.10247">
        <ele>124</ele>
        <time>2021-01-17T13:33:39+01:00</time>
      </trkpt>
      <trkpt lat="48.90467" lon="2.10256">
        <ele>122</ele>
        <time>2021-01-17T13:33:58+01:00</time>
      </trkpt>
      <trkpt lat="48.9049" lon="2.10266">
        <ele>121</ele>
        <time>2021-01-17T13:34:17+01:00</time>
      </trkpt>
      <trkpt lat="48.90512" lon="2.10277">
        <ele>122</ele>
        <time>2021-01-17T13:34:36+01:00</time>
      </trkpt>
      <trkpt lat="48.90534" lon="2.10284">
        <ele>119</ele>
        <time>2021-01-17T13:35:49+01:00</time>
      </trkpt>
      <trkpt lat="48.90556" lon="2.10298">
        <ele>120</ele>
        <time>2021-01-17T13:36:04+01:00</time>
      </trkpt>
      <trkpt lat="48.90578" lon="2.10311">
        <ele>121</ele>
        <time>2021-01-17T13:36:20+01:00</time>
      </trkpt>
      <trkpt lat="48.906" lon="2.10322">
        <ele>122</ele>
        <time>2021-01-17T13:36:37+01:00</time>
      </trkpt>
      <trkpt lat="48.90623" lon="2.10312">
        <ele>119</ele>
        <time>2021-01-17T13:36:59+01:00</time>
      </trkpt>
      <trkpt lat="48.90638" lon="2.10285">
        <ele>118</ele>
        <time>2021-01-17T13:37:17+01:00</time>
      </trkpt>
      <trkpt lat="48.90651" lon="2.10255">
        <ele>118</ele>
        <time>2021-01-17T13:37:34+01:00</time>
      </trkpt>
      <trkpt lat="48.90664" lon="2.10225">
        <ele>121</ele>
        <time>2021-01-17T13:37:53+01:00</time>
      </trkpt>
      <trkpt lat="48.90676" lon="2.10195">
        <ele>121</ele>
        <time>2021-01-17T13:38:14+01:00</time>
      </trkpt>
      <trkpt lat="48.9069" lon="2.10168">
        <ele>125</ele>
        <time>2021-01-17T13:38:33+01:00</time>
      </trkpt>
      <trkpt lat="48.90701" lon="2.10137">
        <ele>126</ele>
        <time>2021-01-17T13:38:53+01:00</time>
      </trkpt>
      <trkpt lat="48.90712" lon="2.10105">
        <ele>123</ele>
        <time>2021-01-17T13:39:13+01:00</time>
      </trkpt>
      <trkpt lat="48.9072" lon="2.10073">
        <ele>122</ele>
        <time>2021-01-17T13:39:32+01:00</time>
      </trkpt>
      <trkpt lat="48.90742" lon="2.10079">
        <ele>118</ele>
        <time>2021-01-17T13:40:43+01:00</time>
      </trkpt>
      <trkpt lat="48.90763" lon="2.10094">
        <ele>120</ele>
        <time>2021-01-17T13:40:58+01:00</time>
      </trkpt>
      <trkpt lat="48.90785" lon="2.10101">
        <ele>121</ele>
        <time>2021-01-17T13:41:20+01:00</time>
      </trkpt>
      <trkpt lat="48.90807" lon="2.10115">
        <ele>122</ele>
        <time>2021-01-17T13:41:40+01:00</time>
      </trkpt>
      <trkpt lat="48.90827" lon="2.10131">
        <ele>123</ele>
        <time>2021-01-17T13:42:21+01:00</time>
      </trkpt>
      <trkpt lat="48.9085" lon="2.10135">
        <ele>126</ele>
        <time>2021-01-17T13:47:02+01:00</time>
      </trkpt>
      <trkpt lat="48.90874" lon="2.10134">
        <ele>127</ele>
        <time>2021-01-17T13:47:21+01:00</time>
      </trkpt>
      <trkpt lat="48.90896" lon="2.10138">
        <ele>119</ele>
        <time>2021-01-17T13:47:42+01:00</time>
      </trkpt>
      <trkpt lat="48.9092" lon="2.10146">
        <ele>117</ele>
        <time>2021-01-17T13:47:57+01:00</time>
      </trkpt>
      <trkpt lat="48.9094" lon="2.10163">
        <ele>122</ele>
        <time>2021-01-17T13:48:14+01:00</time>
      </trkpt>
      <trkpt lat="48.90962" lon="2.10175">
        <ele>127</ele>
        <time>2021-01-17T13:48:35+01:00</time>
      </trkpt>
      <trkpt lat="48.90984" lon="2.10182">
        <ele>125</ele>
        <time>2021-01-17T13:48:50+01:00</time>
      </trkpt>
      <trkpt lat="48.91007" lon="2.10187">
        <ele>125</ele>
        <time>2021-01-17T13:49:06+01:00</time>
      </trkpt>
      <trkpt lat="48.9103" lon="2.10187">
        <ele>128</ele>
        <time>2021-01-17T13:49:22+01:00</time>
      </trkpt>
      <trkpt lat="48.91052" lon="2.10177">
        <ele>129</ele>
        <time>2021-01-17T13:49:39+01:00</time>
      </trkpt>
      <trkpt lat="48.91075" lon="2.1018">
        <ele>127</ele>
        <time>2021-01-17T13:49:55+01:00</time>
      </trkpt>
      <trkpt lat="48.91098" lon="2.10182">
        <ele>127</ele>
        <time>2021-01-17T13:50:12+01:00</time>
      </trkpt>
      <trkpt lat="48.9112" lon="2.10183">
        <ele>124</ele>
        <time>2021-01-17T13:50:30+01:00</time>
      </trkpt>
      <trkpt lat="48.91143" lon="2.10186">
        <ele>125</ele>
        <time>2021-01-17T13:50:48+01:00</time>
      </trkpt>
      <trkpt lat="48.91165" lon="2.10193">
        <ele>123</ele>
        <time>2021-01-17T13:51:40+01:00</time>
      </trkpt>
      <trkpt lat="48.91187" lon="2.10204">
        <ele>124</ele>
        <time>2021-01-17T13:51:57+01:00</time>
      </trkpt>
      <trkpt lat="48.9121" lon="2.102">
        <ele>125</ele>
        <time>2021-01-17T13:52:18+01:00</time>
      </trkpt>
      <trkpt lat="48.91233" lon="2.10189">
        <ele>128</ele>
        <time>2021-01-17T13:52:36+01:00</time>
      </trkpt>
      <trkpt lat="48.9125" lon="2.10165">
        <ele>127</ele>
        <time>2021-01-17T13:53:01+01:00</time>
      </trkpt>
      <trkpt lat="48.91229" lon="2.10153">
        <ele>129</ele>
        <time>2021-01-17T13:53:45+01:00</time>
      </trkpt>
      <trkpt lat="48.91205" lon="2.10157">
        <ele>128</ele>
        <time>2021-01-17T13:54:07+01:00</time>
      </trkpt>
      <trkpt lat="48.91183" lon="2.1015">
        <ele>122</ele>
        <time>2021-01-17T13:54:25+01:00</time>
      </trkpt>
      <trkpt lat="48.91163" lon="2.10134">
        <ele>118</ele>
        <time>2021-01-17T13:54:42+01:00</time>
      </trkpt>
      <trkpt lat="48.91157" lon="2.10101">
        <ele>123</ele>
        <time>2021-01-17T13:55:10+01:00</time>
      </trkpt>
      <trkpt lat="48.91162" lon="2.10066">
        <ele>122</ele>
        <time>2021-01-17T13:55:27+01:00</time>
      </trkpt>
      <trkpt lat="48.91168" lon="2.10033">
        <ele>125</ele>
        <time>2021-01-17T13:55:44+01:00</time>
      </trkpt>
      <trkpt lat="48.91181" lon="2.10005">
        <ele>121</ele>
        <time>2021-01-17T13:56:07+01:00</time>
      </trkpt>
      <trkpt lat="48.91196" lon="2.09977">
        <ele>116</ele>
        <time>2021-01-17T13:56:23+01:00</time>
      </trkpt>
      <trkpt lat="48.91203" lon="2.09943">
        <ele>109</ele>
        <time>2021-01-17T13:56:39+01:00</time>
      </trkpt>
      <trkpt lat="48.91213" lon="2.0991">
        <ele>110</ele>
        <time>2021-01-17T13:56:57+01:00</time>
      </trkpt>
      <trkpt lat="48.91223" lon="2.0988">
        <ele>111</ele>
        <time>2021-01-17T13:57:12+01:00</time>
      </trkpt>
      <trkpt lat="48.91232" lon="2.09847">
        <ele>114</ele>
        <time>2021-01-17T13:58:48+01:00</time>
      </trkpt>
      <trkpt lat="48.91244" lon="2.09816">
        <ele>114</ele>
        <time>2021-01-17T13:58:56+01:00</time>
      </trkpt>
      <trkpt lat="48.91245" lon="2.0978">
        <ele>112</ele>
        <time>2021-01-17T13:59:05+01:00</time>
      </trkpt>
      <trkpt lat="48.91256" lon="2.09747">
        <ele>117</ele>
        <time>2021-01-17T13:59:17+01:00</time>
      </trkpt>
      <trkpt lat="48.91268" lon="2.09718">
        <ele>115</ele>
        <time>2021-01-17T13:59:33+01:00</time>
      </trkpt>
      <trkpt lat="48.9128" lon="2.09687">
        <ele>117</ele>
        <time>2021-01-17T13:59:50+01:00</time>
      </trkpt>
      <trkpt lat="48.91294" lon="2.0966">
        <ele>123</ele>
        <time>2021-01-17T14:00:26+01:00</time>
      </trkpt>
      <trkpt lat="48.91305" lon="2.0963">
        <ele>118</ele>
        <time>2021-01-17T14:00:45+01:00</time>
      </trkpt>
      <trkpt lat="48.91311" lon="2.09595">
        <ele>125</ele>
        <time>2021-01-17T14:01:04+01:00</time>
      </trkpt>
      <trkpt lat="48.91313" lon="2.0956">
        <ele>120</ele>
        <time>2021-01-17T14:01:24+01:00</time>
      </trkpt>
      <trkpt lat="48.91321" lon="2.09526">
        <ele>118</ele>
        <time>2021-01-17T14:01:41+01:00</time>
      </trkpt>
      <trkpt lat="48.91332" lon="2.09494">
        <ele>118</ele>
        <time>2021-01-17T14:02:00+01:00</time>
      </trkpt>
      <trkpt lat="48.91343" lon="2.09463">
        <ele>116</ele>
        <time>2021-01-17T14:02:16+01:00</time>
      </trkpt>
      <trkpt lat="48.91356" lon="2.09432">
        <ele>119</ele>
        <time>2021-01-17T14:02:36+01:00</time>
      </trkpt>
      <trkpt lat="48.9136" lon="2.09397">
        <ele>122</ele>
        <time>2021-01-17T14:02:56+01:00</time>
      </trkpt>
      <trkpt lat="48.9137" lon="2.09366">
        <ele>115</ele>
        <time>2021-01-17T14:03:12+01:00</time>
      </trkpt>
      <trkpt lat="48.91378" lon="2.09333">
        <ele>115</ele>
        <time>2021-01-17T14:03:28+01:00</time>
      </trkpt>
      <trkpt lat="48.91385" lon="2.09299">
        <ele>117</ele>
        <time>2021-01-17T14:03:51+01:00</time>
      </trkpt>
      <trkpt lat="48.91396" lon="2.09268">
        <ele>121</ele>
        <time>2021-01-17T14:04:12+01:00</time>
      </trkpt>
      <trkpt lat="48.91396" lon="2.09233">
        <ele>123</ele>
        <time>2021-01-17T14:04:54+01:00</time>
      </trkpt>
      <trkpt lat="48.91418" lon="2.09219">
        <ele>121</ele>
        <time>2021-01-17T14:05:05+01:00</time>
      </trkpt>
      <trkpt lat="48.91428" lon="2.09188">
        <ele>127</ele>
        <time>2021-01-17T14:05:22+01:00</time>
      </trkpt>
      <trkpt lat="48.91433" lon="2.09153">
        <ele>122</ele>
        <time>2021-01-17T14:05:48+01:00</time>
      </trkpt>
      <trkpt lat="48.91441" lon="2.09121">
        <ele>122</ele>
        <time>2021-01-17T14:06:04+01:00</time>
      </trkpt>
      <trkpt lat="48.91464" lon="2.09115">
        <ele>122</ele>
        <time>2021-01-17T14:09:25+01:00</time>
      </trkpt>
      <trkpt lat="48.91486" lon="2.09124">
        <ele>122</ele>
        <time>2021-01-17T14:09:50+01:00</time>
      </trkpt>
      <trkpt lat="48.91508" lon="2.09135">
        <ele>121</ele>
        <time>2021-01-17T14:10:08+01:00</time>
      </trkpt>
      <trkpt lat="48.9153" lon="2.09145">
        <ele>120</ele>
        <time>2021-01-17T14:10:26+01:00</time>
      </trkpt>
      <trkpt lat="48.91553" lon="2.09147">
        <ele>122</ele>
        <time>2021-01-17T14:10:49+01:00</time>
      </trkpt>
      <trkpt lat="48.91574" lon="2.09159">
        <ele>120</ele>
        <time>2021-01-17T14:11:06+01:00</time>
      </trkpt>
      <trkpt lat="48.91596" lon="2.09173">
        <ele>121</ele>
        <time>2021-01-17T14:11:22+01:00</time>
      </trkpt>
      <trkpt lat="48.91618" lon="2.09183">
        <ele>122</ele>
        <time>2021-01-17T14:11:39+01:00</time>
      </trkpt>
      <trkpt lat="48.9164" lon="2.09188">
        <ele>123</ele>
        <time>2021-01-17T14:11:58+01:00</time>
      </trkpt>
      <trkpt lat="48.91662" lon="2.09198">
        <ele>121</ele>
        <time>2021-01-17T14:12:15+01:00</time>
      </trkpt>
      <trkpt lat="48.91685" lon="2.09209">
        <ele>119</ele>
        <time>2021-01-17T14:12:31+01:00</time>
      </trkpt>
      <trkpt lat="48.91707" lon="2.09222">
        <ele>120</ele>
        <time>2021-01-17T14:12:50+01:00</time>
      </trkpt>
      <trkpt lat="48.91729" lon="2.09231">
        <ele>120</ele>
        <time>2021-01-17T14:13:09+01:00</time>
      </trkpt>
      <trkpt lat="48.91752" lon="2.0924">
        <ele>118</ele>
        <time>2021-01-17T14:13:28+01:00</time>
      </trkpt>
      <trkpt lat="48.91774" lon="2.09249">
        <ele>125</ele>
        <time>2021-01-17T14:13:49+01:00</time>
      </trkpt>
      <trkpt lat="48.91796" lon="2.0926">
        <ele>124</ele>
        <time>2021-01-17T14:14:09+01:00</time>
      </trkpt>
      <trkpt lat="48.91817" lon="2.09246">
        <ele>124</ele>
        <time>2021-01-17T14:15:07+01:00</time>
      </trkpt>
      <trkpt lat="48.91831" lon="2.09218">
        <ele>126</ele>
        <time>2021-01-17T14:15:27+01:00</time>
      </trkpt>
      <trkpt lat="48.91837" lon="2.09184">
        <ele>126</ele>
        <time>2021-01-17T14:15:45+01:00</time>
      </trkpt>
      <trkpt lat="48.91842" lon="2.0915">
        <ele>125</ele>
        <time>2021-01-17T14:16:03+01:00</time>
      </trkpt>
      <trkpt lat="48.91844" lon="2.09115">
        <ele>131</ele>
        <time>2021-01-17T14:16:22+01:00</time>
      </trkpt>
      <trkpt lat="48.91856" lon="2.09086">
        <ele>127</ele>
        <time>2021-01-17T14:16:42+01:00</time>
      </trkpt>
      <trkpt lat="48.91876" lon="2.0907">
        <ele>123</ele>
        <time>2021-01-17T14:17:00+01:00</time>
      </trkpt>
      <trkpt lat="48.91897" lon="2.09056">
        <ele>122</ele>
        <time>2021-01-17T14:17:20+01:00</time>
      </trkpt>
      <trkpt lat="48.91911" lon="2.09028">
        <ele>120</ele>
        <time>2021-01-17T14:19:29+01:00</time>
      </trkpt>
      <trkpt lat="48.91895" lon="2.09004">
        <ele>124</ele>
        <time>2021-01-17T14:22:12+01:00</time>
      </trkpt>
      <trkpt lat="48.919" lon="2.08969">
        <ele>127</ele>
        <time>2021-01-17T14:22:32+01:00</time>
      </trkpt>
      <trkpt lat="48.91914" lon="2.08942">
        <ele>124</ele>
        <time>2021-01-17T14:22:51+01:00</time>
      </trkpt>
      <trkpt lat="48.91937" lon="2.08933">
        <ele>124</ele>
        <time>2021-01-17T14:23:13+01:00</time>
      </trkpt>
      <trkpt lat="48.9195" lon="2.08905">
        <ele>124</ele>
        <time>2021-01-17T14:23:32+01:00</time>
      </trkpt>
      <trkpt lat="48.9196" lon="2.08873">
        <ele>128</ele>
        <time>2021-01-17T14:23:52+01:00</time>
      </trkpt>
      <trkpt lat="48.91965" lon="2.08839">
        <ele>130</ele>
        <time>2021-01-17T14:24:14+01:00</time>
      </trkpt>
      <trkpt lat="48.91975" lon="2.08807">
        <ele>129</ele>
        <time>2021-01-17T14:24:34+01:00</time>
      </trkpt>
      <trkpt lat="48.91986" lon="2.08775">
        <ele>126</ele>
        <time>2021-01-17T14:24:51+01:00</time>
      </trkpt>
      <trkpt lat="48.9199" lon="2.08741">
        <ele>130</ele>
        <time>2021-01-17T14:25:10+01:00</time>
      </trkpt>
      <trkpt lat="48.92012" lon="2.0873">
        <ele>131</ele>
        <time>2021-01-17T14:25:30+01:00</time>
      </trkpt>
      <trkpt lat="48.92033" lon="2.08717">
        <ele>130</ele>
        <time>2021-01-17T14:25:50+01:00</time>
      </trkpt>
      <trkpt lat="48.92054" lon="2.08704">
        <ele>129</ele>
        <time>2021-01-17T14:26:10+01:00</time>
      </trkpt>
      <trkpt lat="48.92075" lon="2.08688">
        <ele>128</ele>
        <time>2021-01-17T14:26:32+01:00</time>
      </trkpt>
      <trkpt lat="48.92097" lon="2.08699">
        <ele>129</ele>
        <time>2021-01-17T14:26:51+01:00</time>
      </trkpt>
      <trkpt lat="48.92117" lon="2.08715">
        <ele>129</ele>
        <time>2021-01-17T14:27:49+01:00</time>
      </trkpt>
      <trkpt lat="48.92107" lon="2.08747">
        <ele>133</ele>
        <time>2021-01-17T14:28:08+01:00</time>
      </trkpt>
      <trkpt lat="48.92095" lon="2.08778">
        <ele>132</ele>
        <time>2021-01-17T14:28:24+01:00</time>
      </trkpt>
      <trkpt lat="48.9208" lon="2.08806">
        <ele>134</ele>
        <time>2021-01-17T14:28:44+01:00</time>
      </trkpt>
      <trkpt lat="48.9207" lon="2.08838">
        <ele>133</ele>
        <time>2021-01-17T14:29:02+01:00</time>
      </trkpt>
      <trkpt lat="48.92056" lon="2.08866">
        <ele>135</ele>
        <time>2021-01-17T14:29:21+01:00</time>
      </trkpt>
      <trkpt lat="48.92042" lon="2.08894">
        <ele>134</ele>
        <time>2021-01-17T14:29:38+01:00</time>
      </trkpt>
      <trkpt lat="48.92031" lon="2.08926">
        <ele>131</ele>
        <time>2021-01-17T14:29:57+01:00</time>
      </trkpt>
      <trkpt lat="48.92017" lon="2.08954">
        <ele>136</ele>
        <time>2021-01-17T14:30:28+01:00</time>
      </trkpt>
      <trkpt lat="48.92005" lon="2.08983">
        <ele>132</ele>
        <time>2021-01-17T14:30:49+01:00</time>
      </trkpt>
      <trkpt lat="48.91995" lon="2.09015">
        <ele>132</ele>
        <time>2021-01-17T14:31:08+01:00</time>
      </trkpt>
      <trkpt lat="48.91985" lon="2.09047">
        <ele>129</ele>
        <time>2021-01-17T14:31:28+01:00</time>
      </trkpt>
      <trkpt lat="48.91976" lon="2.09079">
        <ele>126</ele>
        <time>2021-01-17T14:31:47+01:00</time>
      </trkpt>
      <trkpt lat="48.91962" lon="2.09107">
        <ele>133</ele>
        <time>2021-01-17T14:32:08+01:00</time>
      </trkpt>
      <trkpt lat="48.91947" lon="2.09135">
        <ele>132</ele>
        <time>2021-01-17T14:32:30+01:00</time>
      </trkpt>
      <trkpt lat="48.91938" lon="2.09169">
        <ele>128</ele>
        <time>2021-01-17T14:32:56+01:00</time>
      </trkpt>
      <trkpt lat="48.91923" lon="2.09196">
        <ele>126</ele>
        <time>2021-01-17T14:33:09+01:00</time>
      </trkpt>
      <trkpt lat="48.91911" lon="2.09226">
        <ele>127</ele>
        <time>2021-01-17T14:33:27+01:00</time>
      </trkpt>
      <trkpt lat="48.91901" lon="2.09258">
        <ele>127</ele>
        <time>2021-01-17T14:33:44+01:00</time>
      </trkpt>
      <trkpt lat="48.91893" lon="2.09291">
        <ele>126</ele>
        <time>2021-01-17T14:34:02+01:00</time>
      </trkpt>
      <trkpt lat="48.9191" lon="2.09313">
        <ele>125</ele>
        <time>2021-01-17T14:34:33+01:00</time>
      </trkpt>
      <trkpt lat="48.91932" lon="2.0932">
        <ele>128</ele>
        <time>2021-01-17T14:34:55+01:00</time>
      </trkpt>
      <trkpt lat="48.91955" lon="2.09332">
        <ele>132</ele>
        <time>2021-01-17T14:35:16+01:00</time>
      </trkpt>
      <trkpt lat="48.91977" lon="2.09338">
        <ele>127</ele>
        <time>2021-01-17T14:35:36+01:00</time>
      </trkpt>
      <trkpt lat="48.91999" lon="2.09349">
        <ele>129</ele>
        <time>2021-01-17T14:35:55+01:00</time>
      </trkpt>
      <trkpt lat="48.92021" lon="2.09361">
        <ele>125</ele>
        <time>2021-01-17T14:36:12+01:00</time>
      </trkpt>
      <trkpt lat="48.92043" lon="2.09368">
        <ele>129</ele>
        <time>2021-01-17T14:36:31+01:00</time>
      </trkpt>
      <trkpt lat="48.92065" lon="2.09377">
        <ele>126</ele>
        <time>2021-01-17T14:36:50+01:00</time>
      </trkpt>
      <trkpt lat="48.92087" lon="2.09388">
        <ele>131</ele>
        <time>2021-01-17T14:37:08+01:00</time>
      </trkpt>
      <trkpt lat="48.92108" lon="2.09402">
        <ele>127</ele>
        <time>2021-01-17T14:37:27+01:00</time>
      </trkpt>
      <trkpt lat="48.92103" lon="2.09436">
        <ele>130</ele>
        <time>2021-01-17T14:38:02+01:00</time>
      </trkpt>
      <trkpt lat="48.92091" lon="2.09465">
        <ele>112</ele>
        <time>2021-01-17T14:38:28+01:00</time>
      </trkpt>
      <trkpt lat="48.92076" lon="2.09491">
        <ele>124</ele>
        <time>2021-01-17T14:38:43+01:00</time>
      </trkpt>
      <trkpt lat="48.92061" lon="2.09516">
        <ele>124</ele>
        <time>2021-01-17T14:39:00+01:00</time>
      </trkpt>
      <trkpt lat="48.92044" lon="2.09541">
        <ele>123</ele>
        <time>2021-01-17T14:39:18+01:00</time>
      </trkpt>
      <trkpt lat="48.92032" lon="2.09571">
        <ele>122</ele>
        <time>2021-01-17T14:39:36+01:00</time>
      </trkpt>
      <trkpt lat="48.92018" lon="2.09599">
        <ele>122</ele>
        <time>2021-01-17T14:39:55+01:00</time>
      </trkpt>
      <trkpt lat="48.92005" lon="2.09628">
        <ele>122</ele>
        <time>2021-01-17T14:40:14+01:00</time>
      </trkpt>
      <trkpt lat="48.92011" lon="2.09663">
        <ele>129</ele>
        <time>2021-01-17T14:42:22+01:00</time>
      </trkpt>
      <trkpt lat="48.92027" lon="2.09688">
        <ele>125</ele>
        <time>2021-01-17T14:42:40+01:00</time>
      </trkpt>
      <trkpt lat="48.92043" lon="2.09714">
        <ele>122</ele>
        <time>2021-01-17T14:43:07+01:00</time>
      </trkpt>
      <trkpt lat="48.92056" lon="2.09743">
        <ele>126</ele>
        <time>2021-01-17T14:43:28+01:00</time>
      </trkpt>
      <trkpt lat="48.92066" lon="2.09774">
        <ele>124</ele>
        <time>2021-01-17T14:43:47+01:00</time>
      </trkpt>
      <trkpt lat="48.9208" lon="2.098">
        <ele>125</ele>
        <time>2021-01-17T14:44:06+01:00</time>
      </trkpt>
      <trkpt lat="48.92095" lon="2.09826">
        <ele>122</ele>
        <time>2021-01-17T14:44:27+01:00</time>
      </trkpt>
      <trkpt lat="48.92111" lon="2.0985">
        <ele>130</ele>
        <time>2021-01-17T14:44:46+01:00</time>
      </trkpt>
      <trkpt lat="48.92128" lon="2.09873">
        <ele>127</ele>
        <time>2021-01-17T14:45:07+01:00</time>
      </trkpt>
      <trkpt lat="48.92145" lon="2.09896">
        <ele>126</ele>
        <time>2021-01-17T14:45:26+01:00</time>
      </trkpt>
      <trkpt lat="48.92164" lon="2.09918">
        <ele>129</ele>
        <time>2021-01-17T14:45:47+01:00</time>
      </trkpt>
      <trkpt lat="48.92183" lon="2.09939">
        <ele>130</ele>
        <time>2021-01-17T14:46:06+01:00</time>
      </trkpt>
      <trkpt lat="48.92197" lon="2.09967">
        <ele>125</ele>
        <time>2021-01-17T14:46:25+01:00</time>
      </trkpt>
      <trkpt lat="48.9221" lon="2.09997">
        <ele>120</ele>
        <time>2021-01-17T14:46:41+01:00</time>
      </trkpt>
      <trkpt lat="48.92222" lon="2.10027">
        <ele>122</ele>
        <time>2021-01-17T14:46:58+01:00</time>
      </trkpt>
      <trkpt lat="48.92213" lon="2.1006">
        <ele>123</ele>
        <time>2021-01-17T14:47:20+01:00</time>
      </trkpt>
      <trkpt lat="48.92205" lon="2.10093">
        <ele>133</ele>
        <time>2021-01-17T14:47:46+01:00</time>
      </trkpt>
      <trkpt lat="48.92197" lon="2.10126">
        <ele>134</ele>
        <time>2021-01-17T14:48:04+01:00</time>
      </trkpt>
      <trkpt lat="48.92184" lon="2.10154">
        <ele>132</ele>
        <time>2021-01-17T14:48:29+01:00</time>
      </trkpt>
      <trkpt lat="48.9217" lon="2.10184">
        <ele>135</ele>
        <time>2021-01-17T14:48:48+01:00</time>
      </trkpt>
      <trkpt lat="48.92152" lon="2.10207">
        <ele>135</ele>
        <time>2021-01-17T14:49:08+01:00</time>
      </trkpt>
      <trkpt lat="48.92146" lon="2.1024">
        <ele>131</ele>
        <time>2021-01-17T14:49:28+01:00</time>
      </trkpt>
      <trkpt lat="48.92168" lon="2.10257">
        <ele>132</ele>
        <time>2021-01-17T14:50:12+01:00</time>
      </trkpt>
      <trkpt lat="48.9219" lon="2.10271">
        <ele>127</ele>
        <time>2021-01-17T14:50:28+01:00</time>
      </trkpt>
      <trkpt lat="48.92212" lon="2.10276">
        <ele>128</ele>
        <time>2021-01-17T14:50:44+01:00</time>
      </trkpt>
      <trkpt lat="48.92235" lon="2.10284">
        <ele>130</ele>
        <time>2021-01-17T14:51:03+01:00</time>
      </trkpt>
      <trkpt lat="48.92257" lon="2.10292">
        <ele>132</ele>
        <time>2021-01-17T14:51:22+01:00</time>
      </trkpt>
      <trkpt lat="48.92279" lon="2.10298">
        <ele>129</ele>
        <time>2021-01-17T14:51:42+01:00</time>
      </trkpt>
      <trkpt lat="48.92302" lon="2.10305">
        <ele>129</ele>
        <time>2021-01-17T14:52:01+01:00</time>
      </trkpt>
      <trkpt lat="48.92324" lon="2.10315">
        <ele>134</ele>
        <time>2021-01-17T14:52:21+01:00</time>
      </trkpt>
      <trkpt lat="48.92347" lon="2.10325">
        <ele>134</ele>
        <time>2021-01-17T14:52:39+01:00</time>
      </trkpt>
      <trkpt lat="48.92364" lon="2.10347">
        <ele>125</ele>
        <time>2021-01-17T14:53:06+01:00</time>
      </trkpt>
      <trkpt lat="48.92348" lon="2.10372">
        <ele>122</ele>
        <time>2021-01-17T14:53:38+01:00</time>
      </trkpt>
      <trkpt lat="48.9233" lon="2.10394">
        <ele>125</ele>
        <time>2021-01-17T14:53:55+01:00</time>
      </trkpt>
      <trkpt lat="48.92308" lon="2.10407">
        <ele>119</ele>
        <time>2021-01-17T14:54:14+01:00</time>
      </trkpt>
      <trkpt lat="48.92288" lon="2.10426">
        <ele>117</ele>
        <time>2021-01-17T14:54:33+01:00</time>
      </trkpt>
      <trkpt lat="48.92267" lon="2.10442">
        <ele>124</ele>
        <time>2021-01-17T14:54:52+01:00</time>
      </trkpt>
      <trkpt lat="48.92246" lon="2.10462">
        <ele>127</ele>
        <time>2021-01-17T14:55:02+01:00</time>
      </trkpt>
      <trkpt lat="48.92228" lon="2.10484">
        <ele>130</ele>
        <time>2021-01-17T14:55:45+01:00</time>
      </trkpt>
      <trkpt lat="48.92211" lon="2.10506">
        <ele>128</ele>
        <time>2021-01-17T14:56:08+01:00</time>
      </trkpt>
      <trkpt lat="48.92191" lon="2.10522">
        <ele>125</ele>
        <time>2021-01-17T14:56:31+01:00</time>
      </trkpt>
      <trkpt lat="48.92171" lon="2.10537">
        <ele>118</ele>
        <time>2021-01-17T14:56:52+01:00</time>
      </trkpt>
      <trkpt lat="48.9215" lon="2.1055">
        <ele>117</ele>
        <time>2021-01-17T14:57:13+01:00</time>
      </trkpt>
      <trkpt lat="48.92129" lon="2.10566">
        <ele>110</ele>
        <time>2021-01-17T14:57:34+01:00</time>
      </trkpt>
      <trkpt lat="48.9211" lon="2.10584">
        <ele>111</ele>
        <time>2021-01-17T14:57:54+01:00</time>
      </trkpt>
      <trkpt lat="48.92088" lon="2.10592">
        <ele>113</ele>
        <time>2021-01-17T14:59:16+01:00</time>
      </trkpt>
      <trkpt lat="48.92072" lon="2.10618">
        <ele>104</ele>
        <time>2021-01-17T15:03:06+01:00</time>
      </trkpt>
      <trkpt lat="48.92051" lon="2.10634">
        <ele>105</ele>
        <time>2021-01-17T15:03:25+01:00</time>
      </trkpt>
      <trkpt lat="48.92033" lon="2.10655">
        <ele>105</ele>
        <time>2021-01-17T15:03:48+01:00</time>
      </trkpt>
      <trkpt lat="48.92022" lon="2.10685">
        <ele>113</ele>
        <time>2021-01-17T15:04:08+01:00</time>
      </trkpt>
      <trkpt lat="48.92019" lon="2.10719">
        <ele>107</ele>
        <time>2021-01-17T15:04:33+01:00</time>
      </trkpt>
      <trkpt lat="48.92005" lon="2.10746">
        <ele>94</ele>
        <time>2021-01-17T15:06:01+01:00</time>
      </trkpt>
      <trkpt lat="48.91984" lon="2.10759">
        <ele>103</ele>
        <time>2021-01-17T15:06:49+01:00</time>
      </trkpt>
      <trkpt lat="48.91964" lon="2.10778">
        <ele>107</ele>
        <time>2021-01-17T15:07:25+01:00</time>
      </trkpt>
      <trkpt lat="48.91942" lon="2.10788">
        <ele>111</ele>
        <time>2021-01-17T15:07:58+01:00</time>
      </trkpt>
      <trkpt lat="48.91927" lon="2.10815">
        <ele>121</ele>
        <time>2021-01-17T15:08:39+01:00</time>
      </trkpt>
      <trkpt lat="48.91913" lon="2.10843">
        <ele>114</ele>
        <time>2021-01-17T15:09:05+01:00</time>
      </trkpt>
      <trkpt lat="48.91925" lon="2.10873">
        <ele>119</ele>
        <time>2021-01-17T15:09:30+01:00</time>
      </trkpt>
      <trkpt lat="48.91945" lon="2.10893">
        <ele>113</ele>
        <time>2021-01-17T15:09:54+01:00</time>
      </trkpt>
      <trkpt lat="48.91951" lon="2.10927">
        <ele>112</ele>
        <time>2021-01-17T15:10:10+01:00</time>
      </trkpt>
      <trkpt lat="48.91967" lon="2.10951">
        <ele>113</ele>
        <time>2021-01-17T15:10:35+01:00</time>
      </trkpt>
      <trkpt lat="48.91971" lon="2.10985">
        <ele>111</ele>
        <time>2021-01-17T15:10:57+01:00</time>
      </trkpt>
      <trkpt lat="48.91954" lon="2.11009">
        <ele>113</ele>
        <time>2021-01-17T15:11:18+01:00</time>
      </trkpt>
      <trkpt lat="48.91946" lon="2.11042">
        <ele>108</ele>
        <time>2021-01-17T15:12:26+01:00</time>
      </trkpt>
      <trkpt lat="48.91929" lon="2.11067">
        <ele>106</ele>
        <time>2021-01-17T15:12:46+01:00</time>
      </trkpt>
      <trkpt lat="48.91918" lon="2.11097">
        <ele>106</ele>
        <time>2021-01-17T15:13:06+01:00</time>
      </trkpt>
      <trkpt lat="48.91896" lon="2.11105">
        <ele>109</ele>
        <time>2021-01-17T15:13:33+01:00</time>
      </trkpt>
      <trkpt lat="48.91877" lon="2.11086">
        <ele>106</ele>
        <time>2021-01-17T15:13:55+01:00</time>
      </trkpt>
      <trkpt lat="48.91855" lon="2.11075">
        <ele>108</ele>
        <time>2021-01-17T15:14:15+01:00</time>
      </trkpt>
      <trkpt lat="48.91833" lon="2.11064">
        <ele>110</ele>
        <time>2021-01-17T15:14:34+01:00</time>
      </trkpt>
      <trkpt lat="48.91817" lon="2.1104">
        <ele>107</ele>
        <time>2021-01-17T15:14:55+01:00</time>
      </trkpt>
      <trkpt lat="48.91798" lon="2.11019">
        <ele>111</ele>
        <time>2021-01-17T15:15:16+01:00</time>
      </trkpt>
      <trkpt lat="48.91778" lon="2.11003">
        <ele>110</ele>
        <time>2021-01-17T15:16:10+01:00</time>
      </trkpt>
      <trkpt lat="48.91758" lon="2.10983">
        <ele>112</ele>
        <time>2021-01-17T15:16:31+01:00</time>
      </trkpt>
      <trkpt lat="48.91738" lon="2.10965">
        <ele>109</ele>
        <time>2021-01-17T15:16:52+01:00</time>
      </trkpt>
      <trkpt lat="48.91724" lon="2.10938">
        <ele>111</ele>
        <time>2021-01-17T15:17:17+01:00</time>
      </trkpt>
      <trkpt lat="48.91709" lon="2.10912">
        <ele>116</ele>
        <time>2021-01-17T15:17:42+01:00</time>
      </trkpt>
      <trkpt lat="48.91731" lon="2.10907">
        <ele>119</ele>
        <time>2021-01-17T15:19:13+01:00</time>
      </trkpt>
      <trkpt lat="48.91723" lon="2.10875">
        <ele>120</ele>
        <time>2021-01-17T15:19:34+01:00</time>
      </trkpt>
      <trkpt lat="48.91703" lon="2.10859">
        <ele>122</ele>
        <time>2021-01-17T15:21:29+01:00</time>
      </trkpt>
      <trkpt lat="48.91681" lon="2.10845">
        <ele>125</ele>
        <time>2021-01-17T15:21:51+01:00</time>
      </trkpt>
      <trkpt lat="48.9166" lon="2.10832">
        <ele>122</ele>
        <time>2021-01-17T15:22:11+01:00</time>
      </trkpt>
      <trkpt lat="48.91639" lon="2.10819">
        <ele>120</ele>
        <time>2021-01-17T15:22:31+01:00</time>
      </trkpt>
      <trkpt lat="48.91616" lon="2.10808">
        <ele>119</ele>
        <time>2021-01-17T15:22:51+01:00</time>
      </trkpt>
      <trkpt lat="48.91595" lon="2.10797">
        <ele>119</ele>
        <time>2021-01-17T15:23:11+01:00</time>
      </trkpt>
      <trkpt lat="48.91574" lon="2.10785">
        <ele>121</ele>
        <time>2021-01-17T15:23:30+01:00</time>
      </trkpt>
      <trkpt lat="48.91552" lon="2.10773">
        <ele>122</ele>
        <time>2021-01-17T15:23:51+01:00</time>
      </trkpt>
      <trkpt lat="48.9153" lon="2.1076">
        <ele>122</ele>
        <time>2021-01-17T15:24:11+01:00</time>
      </trkpt>
      <trkpt lat="48.91509" lon="2.10748">
        <ele>121</ele>
        <time>2021-01-17T15:24:30+01:00</time>
      </trkpt>
      <trkpt lat="48.91485" lon="2.10747">
        <ele>124</ele>
        <time>2021-01-17T15:24:54+01:00</time>
      </trkpt>
      <trkpt lat="48.91463" lon="2.10736">
        <ele>126</ele>
        <time>2021-01-17T15:25:13+01:00</time>
      </trkpt>
      <trkpt lat="48.91441" lon="2.10722">
        <ele>127</ele>
        <time>2021-01-17T15:25:32+01:00</time>
      </trkpt>
      <trkpt lat="48.9142" lon="2.1071">
        <ele>124</ele>
        <time>2021-01-17T15:25:52+01:00</time>
      </trkpt>
      <trkpt lat="48.91397" lon="2.10703">
        <ele>127</ele>
        <time>2021-01-17T15:26:13+01:00</time>
      </trkpt>
      <trkpt lat="48.91376" lon="2.10691">
        <ele>126</ele>
        <time>2021-01-17T15:26:31+01:00</time>
      </trkpt>
      <trkpt lat="48.91355" lon="2.10676">
        <ele>123</ele>
        <time>2021-01-17T15:26:50+01:00</time>
      </trkpt>
      <trkpt lat="48.91335" lon="2.10659">
        <ele>118</ele>
        <time>2021-01-17T15:27:09+01:00</time>
      </trkpt>
      <trkpt lat="48.91313" lon="2.1065">
        <ele>120</ele>
        <time>2021-01-17T15:27:28+01:00</time>
      </trkpt>
      <trkpt lat="48.9129" lon="2.10644">
        <ele>122</ele>
        <time>2021-01-17T15:27:48+01:00</time>
      </trkpt>
      <trkpt lat="48.91269" lon="2.10631">
        <ele>121</ele>
        <time>2021-01-17T15:28:08+01:00</time>
      </trkpt>
      <trkpt lat="48.91247" lon="2.10622">
        <ele>117</ele>
        <time>2021-01-17T15:30:14+01:00</time>
      </trkpt>
      <trkpt lat="48.91225" lon="2.10612">
        <ele>116</ele>
        <time>2021-01-17T15:30:36+01:00</time>
      </trkpt>
      <trkpt lat="48.91203" lon="2.10602">
        <ele>119</ele>
        <time>2021-01-17T15:31:11+01:00</time>
      </trkpt>
      <trkpt lat="48.91182" lon="2.10588">
        <ele>127</ele>
        <time>2021-01-17T15:31:32+01:00</time>
      </trkpt>
      <trkpt lat="48.91159" lon="2.10582">
        <ele>123</ele>
        <time>2021-01-17T15:32:02+01:00</time>
      </trkpt>
      <trkpt lat="48.91138" lon="2.10571">
        <ele>120</ele>
        <time>2021-01-17T15:32:23+01:00</time>
      </trkpt>
      <trkpt lat="48.91117" lon="2.10556">
        <ele>121</ele>
        <time>2021-01-17T15:32:44+01:00</time>
      </trkpt>
      <trkpt lat="48.91095" lon="2.10543">
        <ele>123</ele>
        <time>2021-01-17T15:33:03+01:00</time>
      </trkpt>
      <trkpt lat="48.91073" lon="2.10533">
        <ele>120</ele>
        <time>2021-01-17T15:33:21+01:00</time>
      </trkpt>
      <trkpt lat="48.91055" lon="2.10511">
        <ele>119</ele>
        <time>2021-01-17T15:33:56+01:00</time>
      </trkpt>
      <trkpt lat="48.91036" lon="2.1049">
        <ele>126</ele>
        <time>2021-01-17T15:34:58+01:00</time>
      </trkpt>
      <trkpt lat="48.91014" lon="2.1048">
        <ele>124</ele>
        <time>2021-01-17T15:35:20+01:00</time>
      </trkpt>
      <trkpt lat="48.90991" lon="2.10474">
        <ele>125</ele>
        <time>2021-01-17T15:35:37+01:00</time>
      </trkpt>
      <trkpt lat="48.90968" lon="2.10469">
        <ele>123</ele>
        <time>2021-01-17T15:35:57+01:00</time>
      </trkpt>
      <trkpt lat="48.90948" lon="2.10452">
        <ele>120</ele>
        <time>2021-01-17T15:36:20+01:00</time>
      </trkpt>
      <trkpt lat="48.90926" lon="2.10439">
        <ele>120</ele>
        <time>2021-01-17T15:36:38+01:00</time>
      </trkpt>
      <trkpt lat="48.90903" lon="2.10432">
        <ele>124</ele>
        <time>2021-01-17T15:36:56+01:00</time>
      </trkpt>
      <trkpt lat="48.90882" lon="2.1042">
        <ele>122</ele>
        <time>2021-01-17T15:37:14+01:00</time>
      </trkpt>
      <trkpt lat="48.90861" lon="2.1041">
        <ele>115</ele>
        <time>2021-01-17T15:37:41+01:00</time>
      </trkpt>
      <trkpt lat="48.90838" lon="2.104">
        <ele>114</ele>
        <time>2021-01-17T15:38:01+01:00</time>
      </trkpt>
      <trkpt lat="48.90817" lon="2.10387">
        <ele>112</ele>
        <time>2021-01-17T15:38:21+01:00</time>
      </trkpt>
      <trkpt lat="48.90795" lon="2.10375">
        <ele>119</ele>
        <time>2021-01-17T15:38:39+01:00</time>
      </trkpt>
      <trkpt lat="48.90773" lon="2.10362">
        <ele>119</ele>
        <time>2021-01-17T15:38:58+01:00</time>
      </trkpt>
      <trkpt lat="48.90751" lon="2.10352">
        <ele>117</ele>
        <time>2021-01-17T15:39:20+01:00</time>
      </trkpt>
      <trkpt lat="48.90729" lon="2.1034">
        <ele>123</ele>
        <time>2021-01-17T15:39:37+01:00</time>
      </trkpt>
      <trkpt lat="48.90707" lon="2.10328">
        <ele>122</ele>
        <time>2021-01-17T15:39:56+01:00</time>
      </trkpt>
      <trkpt lat="48.90685" lon="2.1032">
        <ele>127</ele>
        <time>2021-01-17T15:40:14+01:00</time>
      </trkpt>
      <trkpt lat="48.90663" lon="2.10306">
        <ele>120</ele>
        <time>2021-01-17T15:40:34+01:00</time>
      </trkpt>
      <trkpt lat="48.90643" lon="2.10289">
        <ele>120</ele>
        <time>2021-01-17T15:40:54+01:00</time>
      </trkpt>
      <trkpt lat="48.90623" lon="2.10272">
        <ele>121</ele>
        <time>2021-01-17T15:41:58+01:00</time>
      </trkpt>
      <trkpt lat="48.90614" lon="2.1024">
        <ele>120</ele>
        <time>2021-01-17T15:42:16+01:00</time>
      </trkpt>
      <trkpt lat="48.90602" lon="2.10211">
        <ele>117</ele>
        <time>2021-01-17T15:42:49+01:00</time>
      </trkpt>
      <trkpt lat="48.90579" lon="2.10203">
        <ele>117</ele>
        <time>2021-01-17T15:43:15+01:00</time>
      </trkpt>
      <trkpt lat="48.90556" lon="2.102">
        <ele>123</ele>
        <time>2021-01-17T15:43:33+01:00</time>
      </trkpt>
      <trkpt lat="48.90535" lon="2.10215">
        <ele>121</ele>
        <time>2021-01-17T15:43:51+01:00</time>
      </trkpt>
      <trkpt lat="48.90515" lon="2.10232">
        <ele>119</ele>
        <time>2021-01-17T15:44:10+01:00</time>
      </trkpt>
      <trkpt lat="48.90492" lon="2.10225">
        <ele>122</ele>
        <time>2021-01-17T15:44:29+01:00</time>
      </trkpt>
      <trkpt lat="48.9047" lon="2.10214">
        <ele>122</ele>
        <time>2021-01-17T15:44:59+01:00</time>
      </trkpt>
      <trkpt lat="48.90448" lon="2.10199">
        <ele>120</ele>
        <time>2021-01-17T15:45:13+01:00</time>
      </trkpt>
      <trkpt lat="48.90427" lon="2.10186">
        <ele>124</ele>
        <time>2021-01-17T15:45:31+01:00</time>
      </trkpt>
      <trkpt lat="48.90405" lon="2.10176">
        <ele>124</ele>
        <time>2021-01-17T15:45:52+01:00</time>
      </trkpt>
      <trkpt lat="48.90397" lon="2.10144">
        <ele>120</ele>
        <time>2021-01-17T15:46:16+01:00</time>
      </trkpt>
      <trkpt lat="48.90402" lon="2.10109">
        <ele>118</ele>
        <time>2021-01-17T15:46:43+01:00</time>
      </trkpt>
      <trkpt lat="48.90408" lon="2.10076">
        <ele>121</ele>
        <time>2021-01-17T15:47:11+01:00</time>
      </trkpt>
      <trkpt lat="48.90386" lon="2.10072">
        <ele>121</ele>
        <time>2021-01-17T15:48:31+01:00</time>
      </trkpt>
      <trkpt lat="48.90363" lon="2.10068">
        <ele>124</ele>
        <time>2021-01-17T15:48:52+01:00</time>
      </trkpt>
      <trkpt lat="48.90341" lon="2.10071">
        <ele>122</ele>
        <time>2021-01-17T15:49:15+01:00</time>
      </trkpt>
      <trkpt lat="48.90323" lon="2.1005">
        <ele>119</ele>
        <time>2021-01-17T15:49:42+01:00</time>
      </trkpt>
      <trkpt lat="48.90302" lon="2.10037">
        <ele>117</ele>
        <time>2021-01-17T15:50:05+01:00</time>
      </trkpt>
      <trkpt lat="48.90296" lon="2.10004">
        <ele>122</ele>
        <time>2021-01-17T15:50:25+01:00</time>
      </trkpt>
      <trkpt lat="48.90285" lon="2.09973">
        <ele>123</ele>
        <time>2021-01-17T15:50:44+01:00</time>
      </trkpt>
      <trkpt lat="48.90273" lon="2.09944">
        <ele>128</ele>
        <time>2021-01-17T15:51:05+01:00</time>
      </trkpt>
      <trkpt lat="48.90256" lon="2.09919">
        <ele>125</ele>
        <time>2021-01-17T15:51:24+01:00</time>
      </trkpt>
      <trkpt lat="48.90245" lon="2.09889">
        <ele>127</ele>
        <time>2021-01-17T15:51:40+01:00</time>
      </trkpt>
      <trkpt lat="48.9023" lon="2.09863">
        <ele>125</ele>
        <time>2021-01-17T15:52:00+01:00</time>
      </trkpt>
      <trkpt lat="48.90221" lon="2.0983">
        <ele>126</ele>
        <time>2021-01-17T15:52:22+01:00</time>
      </trkpt>
      <trkpt lat="48.902" lon="2.09816">
        <ele>125</ele>
        <time>2021-01-17T15:52:42+01:00</time>
      </trkpt>
      <trkpt lat="48.90177" lon="2.09817">
        <ele>125</ele>
        <time>2021-01-17T15:53:04+01:00</time>
      </trkpt>
      <trkpt lat="48.90155" lon="2.09827">
        <ele>123</ele>
        <time>2021-01-17T15:53:30+01:00</time>
      </trkpt>
      <trkpt lat="48.90132" lon="2.09819">
        <ele>131</ele>
        <time>2021-01-17T15:54:20+01:00</time>
      </trkpt>
      <trkpt lat="48.9011" lon="2.09821">
        <ele>130</ele>
        <time>2021-01-17T15:54:35+01:00</time>
      </trkpt>
      <trkpt lat="48.90087" lon="2.09821">
        <ele>132</ele>
        <time>2021-01-17T15:54:50+01:00</time>
      </trkpt>
      <trkpt lat="48.90064" lon="2.09822">
        <ele>132</ele>
        <time>2021-01-17T15:55:05+01:00</time>
      </trkpt>
      <trkpt lat="48.90042" lon="2.09814">
        <ele>133</ele>
        <time>2021-01-17T15:55:21+01:00</time>
      </trkpt>
      <trkpt lat="48.90024" lon="2.09792">
        <ele>134</ele>
        <time>2021-01-17T15:55:41+01:00</time>
      </trkpt>
      <trkpt lat="48.90009" lon="2.09766">
        <ele>132</ele>
        <time>2021-01-17T15:56:01+01:00</time>
      </trkpt>
      <trkpt lat="48.89994" lon="2.09738">
        <ele>130</ele>
        <time>2021-01-17T15:56:21+01:00</time>
      </trkpt>
      <trkpt lat="48.89973" lon="2.09723">
        <ele>132</ele>
        <time>2021-01-17T15:56:40+01:00</time>
      </trkpt>
      <trkpt lat="48.89952" lon="2.09706">
        <ele>131</ele>
        <time>2021-01-17T15:57:04+01:00</time>
      </trkpt>
      <trkpt lat="48.89929" lon="2.09701">
        <ele>132</ele>
        <time>2021-01-17T15:57:23+01:00</time>
      </trkpt>
      <trkpt lat="48.89913" lon="2.09678">
        <ele>127</ele>
        <time>2021-01-17T15:57:43+01:00</time>
      </trkpt>
      <trkpt lat="48.89896" lon="2.09655">
        <ele>130</ele>
        <time>2021-01-17T15:58:04+01:00</time>
      </trkpt>
      <trkpt lat="48.8988" lon="2.09628">
        <ele>128</ele>
        <time>2021-01-17T15:58:24+01:00</time>
      </trkpt>
      <trkpt lat="48.89868" lon="2.096">
        <ele>128</ele>
        <time>2021-01-17T15:58:44+01:00</time>
      </trkpt>
      <trkpt lat="48.89852" lon="2.09574">
        <ele>126</ele>
        <time>2021-01-17T15:59:08+01:00</time>
      </trkpt>
      <trkpt lat="48.89836" lon="2.0955">
        <ele>125</ele>
        <time>2021-01-17T15:59:28+01:00</time>
      </trkpt>
      <trkpt lat="48.89824" lon="2.0952">
        <ele>134</ele>
        <time>2021-01-17T16:00:58+01:00</time>
      </trkpt>
      <trkpt lat="48.89804" lon="2.09504">
        <ele>133</ele>
        <time>2021-01-17T16:01:36+01:00</time>
      </trkpt>
      <trkpt lat="48.89785" lon="2.09485">
        <ele>136</ele>
        <time>2021-01-17T16:01:57+01:00</time>
      </trkpt>
      <trkpt lat="48.89762" lon="2.09479">
        <ele>138</ele>
        <time>2021-01-17T16:02:16+01:00</time>
      </trkpt>
      <trkpt lat="48.89739" lon="2.09477">
        <ele>140</ele>
        <time>2021-01-17T16:02:34+01:00</time>
      </trkpt>
    </trkseg>
  </trk>
</gpx>